sensor_id;sensor_type;location;lat;lon;timestamp;pressure;altitude;pressure_sealevel;temperature;humidity
28935;BME280;16044;52.726;-2.108;2023-09-18T00:02:20;99250.50;;;17.27;100.00
28935;BME280;16044;52.726;-2.108;2023-09-18T00:04:52;99242.56;;;17.26;100.00
28935;BME280;16044;52.726;-2.108;2023-09-18T00:07:22;99235.09;;;17.21;100.00
28935;BME280;16044;52.726;-2.108;2023-09-18T00:09:53;99239.50;;;17.22;100.00
28935;BME280;16044;52.726;-2.108;2023-09-18T00:12:26;99242.25;;;17.22;100.00
28935;BME280;16044;52.726;-2.108;2023-09-18T00:14:56;99237.81;;;17.21;100.00
28935;BME280;16044;52.726;-2.108;2023-09-18T00:17:26;99231.28;;;17.22;100.00
28935;BME280;16044;52.726;-2.108;2023-09-18T00:19:57;99222.53;;;17.25;100.00
28935;BME280;16044;52.726;-2.108;2023-09-18T00:22:28;99218.50;;;17.28;100.00
28935;BME280;16044;52.726;-2.108;2023-09-18T00:24:58;99209.44;;;17.27;100.00
28935;BME280;16044;52.726;-2.108;2023-09-18T00:27:35;99213.31;;;17.31;100.00
28935;BME280;16044;52.726;-2.108;2023-09-18T00:30:07;99214.41;;;17.30;100.00
28935;BME280;16044;52.726;-2.108;2023-09-18T00:32:38;99214.16;;;17.32;100.00
28935;BME280;16044;52.726;-2.108;2023-09-18T00:35:09;99205.69;;;17.33;100.00
28935;BME280;16044;52.726;-2.108;2023-09-18T00:37:39;99220.78;;;17.36;100.00
28935;BME280;16044;52.726;-2.108;2023-09-18T00:40:11;99217.81;;;17.38;100.00
28935;BME280;16044;52.726;-2.108;2023-09-18T00:42:45;99217.81;;;17.38;100.00
28935;BME280;16044;52.726;-2.108;2023-09-18T00:45:15;99216.13;;;17.37;100.00
28935;BME280;16044;52.726;-2.108;2023-09-18T00:47:46;99216.72;;;17.39;100.00
28935;BME280;16044;52.726;-2.108;2023-09-18T00:50:16;99215.63;;;17.40;100.00
28935;BME280;16044;52.726;-2.108;2023-09-18T00:52:47;99200.03;;;17.40;100.00
28935;BME280;16044;52.726;-2.108;2023-09-18T00:55:19;99199.53;;;17.43;100.00
28935;BME280;16044;52.726;-2.108;2023-09-18T00:57:52;99205.84;;;17.44;100.00
28935;BME280;16044;52.726;-2.108;2023-09-18T01:00:22;99198.69;;;17.43;100.00
28935;BME280;16044;52.726;-2.108;2023-09-18T01:02:53;99190.22;;;17.44;100.00
28935;BME280;16044;52.726;-2.108;2023-09-18T01:05:23;99174.63;;;17.45;100.00
28935;BME280;16044;52.726;-2.108;2023-09-18T01:07:54;99179.00;;;17.46;100.00
28935;BME280;16044;52.726;-2.108;2023-09-18T01:10:27;99171.38;;;17.48;100.00
28935;BME280;16044;52.726;-2.108;2023-09-18T01:13:05;99171.94;;;17.50;100.00
28935;BME280;16044;52.726;-2.108;2023-09-18T01:15:47;99169.75;;;17.52;100.00
28935;BME280;16044;52.726;-2.108;2023-09-18T01:18:18;99159.66;;;17.52;100.00
28935;BME280;16044;52.726;-2.108;2023-09-18T01:20:49;99153.34;;;17.52;100.00
28935;BME280;16044;52.726;-2.108;2023-09-18T01:23:22;99151.16;;;17.54;100.00
28935;BME280;16044;52.726;-2.108;2023-09-18T01:25:52;99147.34;;;17.55;100.00
28935;BME280;16044;52.726;-2.108;2023-09-18T01:28:22;99139.94;;;17.56;100.00
28935;BME280;16044;52.726;-2.108;2023-09-18T01:30:53;99128.75;;;17.57;100.00
28935;BME280;16044;52.726;-2.108;2023-09-18T01:33:23;99135.91;;;17.58;100.00
28935;BME280;16044;52.726;-2.108;2023-09-18T01:35:55;99126.56;;;17.59;100.00
28935;BME280;16044;52.726;-2.108;2023-09-18T01:38:29;99122.22;;;17.63;100.00
28935;BME280;16044;52.726;-2.108;2023-09-18T01:41:01;99125.53;;;17.65;100.00
28935;BME280;16044;52.726;-2.108;2023-09-18T01:43:32;99118.16;;;17.66;100.00
28935;BME280;16044;52.726;-2.108;2023-09-18T01:46:02;99117.31;;;17.65;100.00
28935;BME280;16044;52.726;-2.108;2023-09-18T01:48:33;99123.91;;;17.64;100.00
28935;BME280;16044;52.726;-2.108;2023-09-18T01:51:03;99117.06;;;17.67;100.00
28935;BME280;16044;52.726;-2.108;2023-09-18T01:53:36;99114.84;;;17.64;100.00
28935;BME280;16044;52.726;-2.108;2023-09-18T01:56:07;99113.19;;;17.63;100.00
28935;BME280;16044;52.726;-2.108;2023-09-18T01:58:37;99100.31;;;17.63;100.00
28935;BME280;16044;52.726;-2.108;2023-09-18T02:01:08;99103.63;;;17.65;100.00
28935;BME280;16044;52.726;-2.108;2023-09-18T02:03:39;99099.81;;;17.66;100.00
28935;BME280;16044;52.726;-2.108;2023-09-18T02:06:29;99090.19;;;17.64;100.00
28935;BME280;16044;52.726;-2.108;2023-09-18T02:09:03;99079.50;;;17.62;100.00
28935;BME280;16044;52.726;-2.108;2023-09-18T02:11:36;99068.53;;;17.62;100.00
28935;BME280;16044;52.726;-2.108;2023-09-18T02:14:08;99057.31;;;17.64;100.00
28935;BME280;16044;52.726;-2.108;2023-09-18T02:16:41;99052.66;;;17.64;100.00
28935;BME280;16044;52.726;-2.108;2023-09-18T02:19:13;99047.19;;;17.64;100.00
28935;BME280;16044;52.726;-2.108;2023-09-18T02:21:44;99037.81;;;17.60;100.00
28935;BME280;16044;52.726;-2.108;2023-09-18T02:24:17;99034.25;;;17.60;100.00
28935;BME280;16044;52.726;-2.108;2023-09-18T02:26:47;99035.91;;;17.61;100.00
28935;BME280;16044;52.726;-2.108;2023-09-18T02:29:18;99023.28;;;17.60;100.00
28935;BME280;16044;52.726;-2.108;2023-09-18T02:31:48;99014.81;;;17.61;100.00
28935;BME280;16044;52.726;-2.108;2023-09-18T02:34:18;99003.28;;;17.59;100.00
28935;BME280;16044;52.726;-2.108;2023-09-18T02:36:49;99004.94;;;17.60;100.00
28935;BME280;16044;52.726;-2.108;2023-09-18T02:39:22;99001.66;;;17.58;100.00
28935;BME280;16044;52.726;-2.108;2023-09-18T02:41:52;98995.31;;;17.58;100.00
28935;BME280;16044;52.726;-2.108;2023-09-18T02:44:23;98996.66;;;17.55;100.00
28935;BME280;16044;52.726;-2.108;2023-09-18T02:46:54;98990.13;;;17.56;100.00
28935;BME280;16044;52.726;-2.108;2023-09-18T02:49:24;98985.47;;;17.57;100.00
28935;BME280;16044;52.726;-2.108;2023-09-18T02:51:54;98980.78;;;17.57;100.00
28935;BME280;16044;52.726;-2.108;2023-09-18T02:54:27;98973.97;;;17.60;100.00
28935;BME280;16044;52.726;-2.108;2023-09-18T02:56:58;98970.66;;;17.58;100.00
28935;BME280;16044;52.726;-2.108;2023-09-18T02:59:28;98971.50;;;17.58;100.00
28935;BME280;16044;52.726;-2.108;2023-09-18T03:01:59;98968.78;;;17.58;100.00
28935;BME280;16044;52.726;-2.108;2023-09-18T03:04:29;98958.88;;;17.57;100.00
28935;BME280;16044;52.726;-2.108;2023-09-18T03:07:00;98958.88;;;17.57;100.00
28935;BME280;16044;52.726;-2.108;2023-09-18T03:09:33;98944.94;;;17.59;100.00
28935;BME280;16044;52.726;-2.108;2023-09-18T03:12:04;98946.84;;;17.58;100.00
28935;BME280;16044;52.726;-2.108;2023-09-18T03:14:35;98942.44;;;17.57;100.00
28935;BME280;16044;52.726;-2.108;2023-09-18T03:17:05;98937.78;;;17.58;100.00
28935;BME280;16044;52.726;-2.108;2023-09-18T03:19:37;98933.16;;;17.58;100.00
28935;BME280;16044;52.726;-2.108;2023-09-18T03:22:10;98922.69;;;17.55;100.00
28935;BME280;16044;52.726;-2.108;2023-09-18T03:24:43;98915.56;;;17.54;100.00
28935;BME280;16044;52.726;-2.108;2023-09-18T03:27:13;98923.22;;;17.52;100.00
28935;BME280;16044;52.726;-2.108;2023-09-18T03:29:44;98922.66;;;17.50;100.00
28935;BME280;16044;52.726;-2.108;2023-09-18T03:32:14;98924.25;;;17.46;100.00
28935;BME280;16044;52.726;-2.108;2023-09-18T03:34:44;98930.56;;;17.46;100.00
28935;BME280;16044;52.726;-2.108;2023-09-18T03:37:15;98927.50;;;17.43;100.00
28935;BME280;16044;52.726;-2.108;2023-09-18T03:39:48;98926.91;;;17.36;100.00
28935;BME280;16044;52.726;-2.108;2023-09-18T03:42:18;98929.38;;;17.37;100.00
28935;BME280;16044;52.726;-2.108;2023-09-18T03:44:49;98930.22;;;17.38;100.00
28935;BME280;16044;52.726;-2.108;2023-09-18T03:47:19;98923.63;;;17.33;100.00
28935;BME280;16044;52.726;-2.108;2023-09-18T03:49:50;98925.19;;;17.29;100.00
28935;BME280;16044;52.726;-2.108;2023-09-18T03:52:20;98927.94;;;17.29;100.00
28935;BME280;16044;52.726;-2.108;2023-09-18T03:54:53;98924.06;;;17.25;100.00
28935;BME280;16044;52.726;-2.108;2023-09-18T03:57:24;98928.66;;;17.20;100.00
28935;BME280;16044;52.726;-2.108;2023-09-18T03:59:54;98918.56;;;17.20;100.00
28935;BME280;16044;52.726;-2.108;2023-09-18T04:02:25;98928.09;;;17.18;100.00
28935;BME280;16044;52.726;-2.108;2023-09-18T04:04:57;98927.78;;;17.14;100.00
28935;BME280;16044;52.726;-2.108;2023-09-18T04:07:27;98922.00;;;17.10;100.00
28935;BME280;16044;52.726;-2.108;2023-09-18T04:10:01;98923.84;;;17.05;100.00
28935;BME280;16044;52.726;-2.108;2023-09-18T04:12:32;98919.72;;;17.02;100.00
28935;BME280;16044;52.726;-2.108;2023-09-18T04:15:04;98918.91;;;17.02;100.00
28935;BME280;16044;52.726;-2.108;2023-09-18T04:17:35;98913.69;;;17.00;100.00
28935;BME280;16044;52.726;-2.108;2023-09-18T04:20:06;98912.56;;;16.96;100.00
28935;BME280;16044;52.726;-2.108;2023-09-18T04:22:45;98911.13;;;16.93;100.00
28935;BME280;16044;52.726;-2.108;2023-09-18T04:25:20;98909.19;;;16.89;100.00
28935;BME280;16044;52.726;-2.108;2023-09-18T04:27:50;98911.34;;;16.87;100.00
28935;BME280;16044;52.726;-2.108;2023-09-18T04:30:21;98913.78;;;16.83;100.00
28935;BME280;16044;52.726;-2.108;2023-09-18T04:32:51;98909.88;;;16.79;100.00
28935;BME280;16044;52.726;-2.108;2023-09-18T04:35:22;98914.72;;;16.72;100.00
28935;BME280;16044;52.726;-2.108;2023-09-18T04:37:55;98918.50;;;16.71;100.00
28935;BME280;16044;52.726;-2.108;2023-09-18T04:40:28;98906.44;;;16.67;100.00
28935;BME280;16044;52.726;-2.108;2023-09-18T04:43:00;98907.78;;;16.64;100.00
28935;BME280;16044;52.726;-2.108;2023-09-18T04:45:31;98909.38;;;16.60;100.00
28935;BME280;16044;52.726;-2.108;2023-09-18T04:48:02;98906.81;;;16.53;100.00
28935;BME280;16044;52.726;-2.108;2023-09-18T04:50:35;98910.66;;;16.52;100.00
28935;BME280;16044;52.726;-2.108;2023-09-18T04:53:06;98913.81;;;16.44;100.00
28935;BME280;16044;52.726;-2.108;2023-09-18T04:55:39;98907.78;;;16.42;100.00
28935;BME280;16044;52.726;-2.108;2023-09-18T04:58:09;98918.66;;;16.37;100.00
28935;BME280;16044;52.726;-2.108;2023-09-18T05:00:39;98911.53;;;16.36;100.00
28935;BME280;16044;52.726;-2.108;2023-09-18T05:03:10;98902.19;;;16.32;100.00
28935;BME280;16044;52.726;-2.108;2023-09-18T05:05:41;98903.25;;;16.31;100.00
28935;BME280;16044;52.726;-2.108;2023-09-18T05:08:11;98900.75;;;16.29;100.00
28935;BME280;16044;52.726;-2.108;2023-09-18T05:10:44;98899.38;;;16.27;100.00
28935;BME280;16044;52.726;-2.108;2023-09-18T05:13:15;98894.16;;;16.25;100.00
28935;BME280;16044;52.726;-2.108;2023-09-18T05:15:45;98902.59;;;16.24;100.00
28935;BME280;16044;52.726;-2.108;2023-09-18T05:18:16;98896.84;;;16.20;100.00
28935;BME280;16044;52.726;-2.108;2023-09-18T05:20:46;98909.66;;;16.20;100.00
28935;BME280;16044;52.726;-2.108;2023-09-18T05:23:17;98911.25;;;16.15;100.00
28935;BME280;16044;52.726;-2.108;2023-09-18T05:25:50;98907.94;;;16.13;100.00
28935;BME280;16044;52.726;-2.108;2023-09-18T05:28:20;98913.91;;;16.10;100.00
28935;BME280;16044;52.726;-2.108;2023-09-18T05:30:51;98909.19;;;16.06;100.00
28935;BME280;16044;52.726;-2.108;2023-09-18T05:33:22;98911.59;;;16.02;100.00
28935;BME280;16044;52.726;-2.108;2023-09-18T05:35:52;98912.63;;;15.96;100.00
28935;BME280;16044;52.726;-2.108;2023-09-18T05:38:23;98916.09;;;15.91;100.00
28935;BME280;16044;52.726;-2.108;2023-09-18T05:40:56;98910.56;;;15.86;100.00
28935;BME280;16044;52.726;-2.108;2023-09-18T05:43:26;98910.81;;;15.85;100.00
28935;BME280;16044;52.726;-2.108;2023-09-18T05:45:57;98905.84;;;15.82;100.00
28935;BME280;16044;52.726;-2.108;2023-09-18T05:48:27;98911.50;;;15.75;100.00
28935;BME280;16044;52.726;-2.108;2023-09-18T05:50:58;98919.06;;;15.73;100.00
28935;BME280;16044;52.726;-2.108;2023-09-18T05:53:28;98911.59;;;15.68;100.00
28935;BME280;16044;52.726;-2.108;2023-09-18T05:56:04;98915.09;;;15.64;100.00
28935;BME280;16044;52.726;-2.108;2023-09-18T05:58:36;98912.53;;;15.57;100.00
28935;BME280;16044;52.726;-2.108;2023-09-18T06:01:07;98908.38;;;15.54;100.00
28935;BME280;16044;52.726;-2.108;2023-09-18T06:03:37;98903.16;;;15.53;100.00
28935;BME280;16044;52.726;-2.108;2023-09-18T06:06:08;98905.31;;;15.51;100.00
28935;BME280;16044;52.726;-2.108;2023-09-18T06:08:38;98905.31;;;15.51;100.00
28935;BME280;16044;52.726;-2.108;2023-09-18T06:11:11;98900.19;;;15.54;100.00
28935;BME280;16044;52.726;-2.108;2023-09-18T06:13:41;98900.53;;;15.58;100.00
28935;BME280;16044;52.726;-2.108;2023-09-18T06:16:12;98907.16;;;15.62;100.00
28935;BME280;16044;52.726;-2.108;2023-09-18T06:18:42;98898.47;;;15.65;100.00
28935;BME280;16044;52.726;-2.108;2023-09-18T06:21:13;98902.34;;;15.69;100.00
28935;BME280;16044;52.726;-2.108;2023-09-18T06:23:43;98904.34;;;15.74;100.00
28935;BME280;16044;52.726;-2.108;2023-09-18T06:26:16;98902.78;;;15.78;100.00
28935;BME280;16044;52.726;-2.108;2023-09-18T06:28:47;98898.72;;;15.81;100.00
28935;BME280;16044;52.726;-2.108;2023-09-18T06:31:22;98903.69;;;15.84;100.00
28935;BME280;16044;52.726;-2.108;2023-09-18T06:33:53;98900.22;;;15.88;100.00
28935;BME280;16044;52.726;-2.108;2023-09-18T06:36:23;98905.47;;;15.95;100.00
28935;BME280;16044;52.726;-2.108;2023-09-18T06:38:54;98902.84;;;16.00;100.00
28935;BME280;16044;52.726;-2.108;2023-09-18T06:41:28;98898.75;;;16.03;100.00
28935;BME280;16044;52.726;-2.108;2023-09-18T06:43:58;98898.53;;;16.04;100.00
28935;BME280;16044;52.726;-2.108;2023-09-18T06:46:29;98898.19;;;16.01;100.00
28935;BME280;16044;52.726;-2.108;2023-09-18T06:49:00;98889.75;;;16.02;100.00
28935;BME280;16044;52.726;-2.108;2023-09-18T06:51:30;98893.13;;;16.09;100.00
28935;BME280;16044;52.726;-2.108;2023-09-18T06:54:09;98892.03;;;16.10;100.00
28935;BME280;16044;52.726;-2.108;2023-09-18T06:56:42;98879.78;;;16.13;100.00
28935;BME280;16044;52.726;-2.108;2023-09-18T06:59:13;98882.56;;;16.18;100.00
28935;BME280;16044;52.726;-2.108;2023-09-18T07:01:43;98875.78;;;16.21;100.00
28935;BME280;16044;52.726;-2.108;2023-09-18T07:04:14;98872.81;;;16.22;100.00
28935;BME280;16044;52.726;-2.108;2023-09-18T07:06:44;98869.22;;;16.22;100.00
28935;BME280;16044;52.726;-2.108;2023-09-18T07:09:14;98864.34;;;16.24;100.00
28935;BME280;16044;52.726;-2.108;2023-09-18T07:11:47;98861.03;;;16.22;100.00
28935;BME280;16044;52.726;-2.108;2023-09-18T07:14:18;98853.34;;;16.18;100.00
28935;BME280;16044;52.726;-2.108;2023-09-18T07:16:48;98859.88;;;16.17;100.00
28935;BME280;16044;52.726;-2.108;2023-09-18T07:19:19;98859.38;;;16.21;100.00
28935;BME280;16044;52.726;-2.108;2023-09-18T07:21:49;98862.00;;;16.32;100.00
28935;BME280;16044;52.726;-2.108;2023-09-18T07:24:19;98861.69;;;16.51;100.00
28935;BME280;16044;52.726;-2.108;2023-09-18T07:26:52;98866.81;;;16.69;100.00
28935;BME280;16044;52.726;-2.108;2023-09-18T07:29:25;98854.47;;;16.89;100.00
28935;BME280;16044;52.726;-2.108;2023-09-18T07:31:55;98863.19;;;17.13;100.00
28935;BME280;16044;52.726;-2.108;2023-09-18T07:34:28;98858.91;;;17.27;100.00
28935;BME280;16044;52.726;-2.108;2023-09-18T07:36:59;98864.09;;;17.56;100.00
28935;BME280;16044;52.726;-2.108;2023-09-18T07:39:29;98857.16;;;17.81;100.00
28935;BME280;16044;52.726;-2.108;2023-09-18T07:42:03;98860.56;;;18.03;100.00
28935;BME280;16044;52.726;-2.108;2023-09-18T07:44:33;98845.91;;;18.30;100.00
28935;BME280;16044;52.726;-2.108;2023-09-18T07:47:04;98844.91;;;18.51;100.00
28935;BME280;16044;52.726;-2.108;2023-09-18T07:49:34;98833.72;;;18.74;100.00
28935;BME280;16044;52.726;-2.108;2023-09-18T07:52:05;98839.28;;;18.94;100.00
28935;BME280;16044;52.726;-2.108;2023-09-18T07:54:36;98846.69;;;18.99;100.00
28935;BME280;16044;52.726;-2.108;2023-09-18T07:57:09;98842.06;;;19.25;100.00
28935;BME280;16044;52.726;-2.108;2023-09-18T07:59:40;98837.94;;;19.53;100.00
28935;BME280;16044;52.726;-2.108;2023-09-18T08:02:11;98837.38;;;19.72;99.86
28935;BME280;16044;52.726;-2.108;2023-09-18T08:04:41;98841.19;;;19.86;98.61
28935;BME280;16044;52.726;-2.108;2023-09-18T08:07:12;98848.84;;;20.10;97.59
28935;BME280;16044;52.726;-2.108;2023-09-18T08:09:43;98833.38;;;20.24;96.86
28935;BME280;16044;52.726;-2.108;2023-09-18T08:12:18;98831.09;;;20.41;96.19
28935;BME280;16044;52.726;-2.108;2023-09-18T08:14:49;98837.66;;;20.51;93.74
28935;BME280;16044;52.726;-2.108;2023-09-18T08:17:19;98835.72;;;20.67;93.56
28935;BME280;16044;52.726;-2.108;2023-09-18T08:19:50;98826.84;;;20.70;92.01
28935;BME280;16044;52.726;-2.108;2023-09-18T08:22:22;98825.50;;;20.67;91.32
28935;BME280;16044;52.726;-2.108;2023-09-18T08:24:53;98834.84;;;20.66;89.90
28935;BME280;16044;52.726;-2.108;2023-09-18T08:27:26;98823.81;;;20.76;88.23
28935;BME280;16044;52.726;-2.108;2023-09-18T08:29:57;98830.38;;;20.86;89.13
28935;BME280;16044;52.726;-2.108;2023-09-18T08:32:27;98831.44;;;20.90;89.01
28935;BME280;16044;52.726;-2.108;2023-09-18T08:35:01;98829.69;;;21.04;89.81
28935;BME280;16044;52.726;-2.108;2023-09-18T08:37:32;98814.81;;;21.00;88.68
28935;BME280;16044;52.726;-2.108;2023-09-18T08:40:03;98826.56;;;21.16;88.96
28935;BME280;16044;52.726;-2.108;2023-09-18T08:42:45;98828.56;;;21.05;84.59
28935;BME280;16044;52.726;-2.108;2023-09-18T08:45:22;98835.16;;;21.09;86.13
28935;BME280;16044;52.726;-2.108;2023-09-18T08:47:55;98834.03;;;21.15;86.25
28935;BME280;16044;52.726;-2.108;2023-09-18T08:50:26;98823.28;;;21.14;86.08
28935;BME280;16044;52.726;-2.108;2023-09-18T08:52:58;98814.91;;;20.90;84.27
28935;BME280;16044;52.726;-2.108;2023-09-18T08:55:33;98801.13;;;20.90;84.99
28935;BME280;16044;52.726;-2.108;2023-09-18T08:58:08;98794.56;;;20.86;85.50
28935;BME280;16044;52.726;-2.108;2023-09-18T09:00:39;98803.00;;;20.99;86.15
28935;BME280;16044;52.726;-2.108;2023-09-18T09:03:10;98807.88;;;21.08;83.48
28935;BME280;16044;52.726;-2.108;2023-09-18T09:05:40;98793.25;;;21.12;83.40
28935;BME280;16044;52.726;-2.108;2023-09-18T09:08:11;98797.69;;;21.08;83.25
28935;BME280;16044;52.726;-2.108;2023-09-18T09:10:42;98786.72;;;21.03;82.28
28935;BME280;16044;52.726;-2.108;2023-09-18T09:13:14;98784.78;;;21.03;82.09
28935;BME280;16044;52.726;-2.108;2023-09-18T09:16:05;98785.09;;;21.02;82.06
28935;BME280;16044;52.726;-2.108;2023-09-18T09:18:47;98782.41;;;20.87;81.04
28935;BME280;16044;52.726;-2.108;2023-09-18T09:21:19;98779.19;;;20.79;80.67
28935;BME280;16044;52.726;-2.108;2023-09-18T09:23:51;98789.44;;;20.58;81.14
28935;BME280;16044;52.726;-2.108;2023-09-18T09:26:23;98779.38;;;20.43;79.56
28935;BME280;16044;52.726;-2.108;2023-09-18T09:28:56;98782.19;;;20.28;79.47
28935;BME280;16044;52.726;-2.108;2023-09-18T09:31:27;98779.25;;;20.09;80.74
28935;BME280;16044;52.726;-2.108;2023-09-18T09:33:59;98776.53;;;19.99;81.57
28935;BME280;16044;52.726;-2.108;2023-09-18T09:36:32;98784.84;;;19.89;82.41
28935;BME280;16044;52.726;-2.108;2023-09-18T09:39:03;98783.22;;;19.72;83.52
28935;BME280;16044;52.726;-2.108;2023-09-18T09:41:34;98781.56;;;19.61;83.03
28935;BME280;16044;52.726;-2.108;2023-09-18T09:44:07;98784.63;;;19.44;83.63
28935;BME280;16044;52.726;-2.108;2023-09-18T09:46:45;98785.72;;;19.33;83.96
28935;BME280;16044;52.726;-2.108;2023-09-18T09:49:16;98768.72;;;19.15;84.88
28935;BME280;16044;52.726;-2.108;2023-09-18T09:51:47;98782.44;;;19.05;85.09
28935;BME280;16044;52.726;-2.108;2023-09-18T09:54:31;98780.53;;;18.85;86.00
28935;BME280;16044;52.726;-2.108;2023-09-18T09:57:07;98780.75;;;18.78;86.73
28935;BME280;16044;52.726;-2.108;2023-09-18T09:59:41;98776.63;;;18.70;86.66
28935;BME280;16044;52.726;-2.108;2023-09-18T10:02:12;98783.47;;;18.53;87.38
28935;BME280;16044;52.726;-2.108;2023-09-18T10:04:47;98786.19;;;18.47;87.84
28935;BME280;16044;52.726;-2.108;2023-09-18T10:07:20;98791.09;;;18.40;88.46
28935;BME280;16044;52.726;-2.108;2023-09-18T10:09:52;98792.44;;;18.33;89.33
28935;BME280;16044;52.726;-2.108;2023-09-18T10:12:23;98789.69;;;18.33;89.56
28935;BME280;16044;52.726;-2.108;2023-09-18T10:14:57;98787.22;;;18.31;90.06
28935;BME280;16044;52.726;-2.108;2023-09-18T10:17:29;98787.78;;;18.28;89.93
28935;BME280;16044;52.726;-2.108;2023-09-18T10:20:04;98798.97;;;18.21;90.70
28935;BME280;16044;52.726;-2.108;2023-09-18T10:22:45;98792.09;;;18.14;91.75
28935;BME280;16044;52.726;-2.108;2023-09-18T10:25:20;98794.28;;;18.11;92.05
28935;BME280;16044;52.726;-2.108;2023-09-18T10:27:52;98798.88;;;18.01;93.29
28935;BME280;16044;52.726;-2.108;2023-09-18T10:30:32;98799.66;;;17.91;94.67
28935;BME280;16044;52.726;-2.108;2023-09-18T10:33:04;98810.06;;;17.89;95.57
28935;BME280;16044;52.726;-2.108;2023-09-18T10:35:36;98809.16;;;17.78;97.62
28935;BME280;16044;52.726;-2.108;2023-09-18T10:38:07;98806.16;;;17.80;97.95
28935;BME280;16044;52.726;-2.108;2023-09-18T10:40:38;98811.63;;;17.80;99.08
28935;BME280;16044;52.726;-2.108;2023-09-18T10:43:11;98808.38;;;17.83;99.92
28935;BME280;16044;52.726;-2.108;2023-09-18T10:45:45;98807.53;;;17.82;100.00
28935;BME280;16044;52.726;-2.108;2023-09-18T10:48:17;98810.22;;;17.72;100.00
28935;BME280;16044;52.726;-2.108;2023-09-18T10:50:51;98815.00;;;17.87;100.00
28935;BME280;16044;52.726;-2.108;2023-09-18T10:53:25;98816.59;;;17.83;100.00
28935;BME280;16044;52.726;-2.108;2023-09-18T10:55:55;98807.84;;;17.86;100.00
28935;BME280;16044;52.726;-2.108;2023-09-18T10:58:27;98809.97;;;17.73;100.00
28935;BME280;16044;52.726;-2.108;2023-09-18T11:01:02;98821.47;;;17.76;100.00
28935;BME280;16044;52.726;-2.108;2023-09-18T11:03:33;98815.66;;;17.67;100.00
28935;BME280;16044;52.726;-2.108;2023-09-18T11:06:05;98821.09;;;17.57;100.00
28935;BME280;16044;52.726;-2.108;2023-09-18T11:08:43;98826.72;;;17.40;100.00
28935;BME280;16044;52.726;-2.108;2023-09-18T11:11:18;98832.31;;;17.23;100.00
28935;BME280;16044;52.726;-2.108;2023-09-18T11:13:53;98839.47;;;16.97;100.00
28935;BME280;16044;52.726;-2.108;2023-09-18T11:16:38;98845.69;;;16.87;100.00
28935;BME280;16044;52.726;-2.108;2023-09-18T11:19:11;98861.69;;;16.78;100.00
28935;BME280;16044;52.726;-2.108;2023-09-18T11:21:42;98855.50;;;16.61;100.00
28935;BME280;16044;52.726;-2.108;2023-09-18T11:24:20;98875.09;;;16.52;100.00
28935;BME280;16044;52.726;-2.108;2023-09-18T11:26:51;98888.19;;;16.28;100.00
28935;BME280;16044;52.726;-2.108;2023-09-18T11:29:23;98899.50;;;16.15;100.00
28935;BME280;16044;52.726;-2.108;2023-09-18T11:31:58;98903.97;;;16.04;100.00
28935;BME280;16044;52.726;-2.108;2023-09-18T11:34:32;98897.97;;;15.85;100.00
28935;BME280;16044;52.726;-2.108;2023-09-18T11:37:19;98904.22;;;15.52;100.00
28935;BME280;16044;52.726;-2.108;2023-09-18T11:39:50;98907.81;;;15.52;100.00
28935;BME280;16044;52.726;-2.108;2023-09-18T11:42:21;98903.06;;;15.48;100.00
28935;BME280;16044;52.726;-2.108;2023-09-18T11:44:54;98903.66;;;15.50;100.00
28935;BME280;16044;52.726;-2.108;2023-09-18T11:47:29;98896.94;;;15.57;100.00
28935;BME280;16044;52.726;-2.108;2023-09-18T11:50:00;98908.00;;;15.79;100.00
28935;BME280;16044;52.726;-2.108;2023-09-18T11:52:34;98909.31;;;15.94;100.00
28935;BME280;16044;52.726;-2.108;2023-09-18T11:55:06;98912.47;;;16.25;100.00
28935;BME280;16044;52.726;-2.108;2023-09-18T11:57:37;98918.22;;;16.45;100.00
28935;BME280;16044;52.726;-2.108;2023-09-18T12:00:18;98915.41;;;16.62;100.00
28935;BME280;16044;52.726;-2.108;2023-09-18T12:02:53;98917.59;;;16.82;98.76
28935;BME280;16044;52.726;-2.108;2023-09-18T12:05:25;98909.03;;;17.01;99.29
28935;BME280;16044;52.726;-2.108;2023-09-18T12:07:56;98921.88;;;17.22;98.85
28935;BME280;16044;52.726;-2.108;2023-09-18T12:10:27;98912.69;;;17.39;99.64
28935;BME280;16044;52.726;-2.108;2023-09-18T12:12:58;98918.09;;;17.61;100.00
28935;BME280;16044;52.726;-2.108;2023-09-18T12:15:31;98927.19;;;17.66;97.60
28935;BME280;16044;52.726;-2.108;2023-09-18T12:18:10;98928.81;;;17.67;96.33
28935;BME280;16044;52.726;-2.108;2023-09-18T12:20:46;98917.69;;;17.79;95.38
28935;BME280;16044;52.726;-2.108;2023-09-18T12:23:17;98921.81;;;17.82;95.25
28935;BME280;16044;52.726;-2.108;2023-09-18T12:25:50;98930.00;;;17.77;94.50
28935;BME280;16044;52.726;-2.108;2023-09-18T12:28:27;98919.47;;;17.63;92.77
28935;BME280;16044;52.726;-2.108;2023-09-18T12:30:58;98920.75;;;17.50;92.42
28935;BME280;16044;52.726;-2.108;2023-09-18T12:33:37;98929.53;;;17.52;92.26
28935;BME280;16044;52.726;-2.108;2023-09-18T12:36:08;98925.44;;;17.55;93.62
28935;BME280;16044;52.726;-2.108;2023-09-18T12:38:41;98923.78;;;17.54;94.23
28935;BME280;16044;52.726;-2.108;2023-09-18T12:41:12;98928.50;;;17.59;95.00
28935;BME280;16044;52.726;-2.108;2023-09-18T12:43:43;98933.84;;;17.76;94.58
28935;BME280;16044;52.726;-2.108;2023-09-18T12:46:13;98929.47;;;17.80;94.07
28935;BME280;16044;52.726;-2.108;2023-09-18T12:48:47;98921.41;;;17.95;92.56
28935;BME280;16044;52.726;-2.108;2023-09-18T12:51:18;98924.22;;;18.10;91.85
28935;BME280;16044;52.726;-2.108;2023-09-18T12:53:59;98913.84;;;18.18;91.64
28935;BME280;16044;52.726;-2.108;2023-09-18T12:56:40;98922.72;;;18.30;90.04
28935;BME280;16044;52.726;-2.108;2023-09-18T12:59:11;98926.53;;;18.29;88.84
28935;BME280;16044;52.726;-2.108;2023-09-18T13:01:46;98935.06;;;18.33;87.54
28935;BME280;16044;52.726;-2.108;2023-09-18T13:04:20;98935.88;;;18.28;86.69
28935;BME280;16044;52.726;-2.108;2023-09-18T13:07:03;98948.19;;;18.25;86.48
28935;BME280;16044;52.726;-2.108;2023-09-18T13:09:35;98957.13;;;18.05;88.35